Airfield :
LOGIN :

Register | Disclaimer

   EN    FR    IT 

 










Legend :    VFR   Marginal VFR   IFR   Intensive IFR   Very Intensive IFR
Visi :
Ceiling :
>= 8 km
>= 3000ft
5 to 8 km
1000 to 3000 ft
1500m to 5 km
500 to 1000 ft
800 to 1500m
200 to 500 ft
< 800m
< 200 ft
Symbols :   Thunderstorms  Fog  Heavy snow  Heavy precipitations  Wind > 20 kt
SIGMETs :     Misc.  Thunderstorms  Icing  Turbulence  Mountain Waves  Volcanic Ashes







- Airport Elevation : 359 ft
- IATA code : BVA
- Download approach charts


LFOB - Beauvais

CURRENT METAR :
  • 130530Z AUTO 09009KT 9000 NSC M00/M01 Q1015 TEMPO OVC006

EXPIRED METARs :
  • 130500Z AUTO 09007KT 9000 NSC M00/M01 Q1016 TEMPO 3000 BR OVC006
  • 130430Z AUTO 09005KT 7000 NSC M01/M01 Q1016 TEMPO 3000 BR OVC006 BECMG 07015KT
  • 130400Z AUTO 09004KT 6000 NSC M01/M01 Q1016 TEMPO 3000 BR OVC006
  • 130330Z AUTO 12003KT 6000 FEW008 M02/M02 Q1017 TEMPO 3000 BR OVC006
  • 130300Z AUTO 13003KT 6000 BKN008 M01/M02 Q1017 TEMPO 3000 BR

TAF TAF LFOB
Valid from the 13 at 06:00 until the 14 at 06:00 UTC


130500Z 1306/1406 11007KT 6000 NSC
TEMPO 1306/1309 OVC006
BECMG 1306/1308 11015KT
PROB30 1401/1406 OVC003
ATIS : +33 3 44 11 49 28
No reported NOTAMs for that airfield.



MET'MAP, your aeronautical weather chart ! - Copyright ORBIFLY December 2007 - Disclaimer

ORBIFLY MET'MAP TEAM :

Programming & Development : Alexandra Zaïnal
Concept & Development : Baudouin d'Aumeries
Co-Development & Prog : Marc-Olivier Méhu
Technical & hardware support : Manuel Goepfert

Contact : metmap@orbifly.com




SOURCES & CREDITS :

   NOAA